This is the latest recevied weather packets stored in our database for station/object KN6KDD. If no packets are shown the sender has not sent any weather packets the latest 1 day(s).
| Time | Temp. | Humidity | Pressure | Rain* | Wind** | Luminosity | Snow |
|---|---|---|---|---|---|---|---|
| 1777985155 | 10° C | 99% | 1352.7 hPa | 0 mm | 0.89 m/s, 256° | 0 W/m² | - |
| 1777984851 | 10° C | 99% | 1352.7 hPa | 0 mm | 0 m/s | 0 W/m² | - |
| 1777984548 | 10° C | 99% | 1352.5 hPa | 0 mm | 0 m/s | 0 W/m² | - |
| 1777984244 | 10° C | 99% | 1352.6 hPa | 0 mm | 0.89 m/s, 290° | 0 W/m² | - |
| 1777983941 | 10° C | 99% | 1352.5 hPa | 0 mm | 1.34 m/s, 251° | 0 W/m² | - |
| 1777983638 | 10° C | 99% | 1352.5 hPa | 0 mm | 1.34 m/s, 257° | 0 W/m² | - |
| 1777983335 | 10° C | 99% | 1352.7 hPa | 0 mm | 0.89 m/s, 280° | 0 W/m² | - |
| 1777983032 | 10° C | 99% | 1352.6 hPa | 0 mm | 0.45 m/s, 271° | 0 W/m² | - |
| 1777982728 | 10° C | 99% | 1352.7 hPa | 0 mm | 0 m/s | 0 W/m² | - |
| 1777982423 | 10° C | 99% | 1352.6 hPa | 0 mm | 0 m/s | 0 W/m² | - |
| 1777982118 | 10° C | 99% | 1352.7 hPa | 0 mm | 0.89 m/s, 339° | 0 W/m² | - |
| 1777981816 | 10° C | 99% | 1352.7 hPa | 0 mm | 0.89 m/s, 282° | 0 W/m² | - |
| 1777981513 | 10° C | 99% | 1352.7 hPa | 0 mm | 0 m/s | 0 W/m² | - |
| 1777981209 | 10° C | 99% | 1352.9 hPa | 0 mm | 0.89 m/s, 265° | 0 W/m² | - |
| 1777980906 | 10° C | 99% | 1352.6 hPa | 0 mm | 0 m/s | 0 W/m² | - |
| 1777976658 | 10° C | 99% | 1352.3 hPa | 0 mm | 3.58 m/s, 247° | 0 W/m² | - |
| 1777976354 | 10° C | 99% | 1352.9 hPa | 0 mm | 3.58 m/s, 247° | 0 W/m² | - |
| 1777976059 | 10° C | 99% | 1352.9 hPa | 0 mm | 3.58 m/s, 247° | 0 W/m² | - |
| 1777975745 | 10° C | 99% | 1353 hPa | 0 mm | 3.58 m/s, 247° | 0 W/m² | - |
| 1777975442 | 10° C | 99% | 1353.1 hPa | 0.51 mm | 3.58 m/s, 247° | 0 W/m² | - |
| 1777975137 | 10° C | 99% | 1353.1 hPa | 0.51 mm | 3.58 m/s, 247° | 0 W/m² | - |
| 1777974835 | 10° C | 99% | 1353.3 hPa | 0 mm | 3.58 m/s, 247° | 0 W/m² | - |
| 1777974531 | 10° C | 99% | 1352.7 hPa | 0 mm | 3.58 m/s, 247° | 0 W/m² | - |
| 1777974233 | 10° C | 99% | 1352.5 hPa | 0 mm | 3.58 m/s, 247° | 0 W/m² | - |
| 1777973923 | 10° C | 99% | 1352.9 hPa | 0 mm | 3.58 m/s, 247° | 0 W/m² | - |
* Rain latest hour (hover to see other rain measurements)
** Current wind speed in m/s (hover to see current wind gust speed)